< Cyclone 200711 2007 Season Cyclone 200713 >
Cyclone 200712 (JACOB)
General InformationTrack Information on Google MapsDetailed Wind InformationList of All Images || ResourceGoogle EarthGE AnimationAtom FeedGeoJSON
Detalied Best Track (Time Zone = UTC)
Year Month Day Hour Lat. Long. Pressure (hPa) Wind (kt) Class Image Chart
2007 3 2 18 -13.7 118.9 1002 20 2 Image --
2007 3 3 00 -13.7 118.1 1000 25 2 Image --
2007 3 3 06 -13.7 117.7 999 25 2 Image --
2007 3 3 12 -13.7 117.3 998 25 2 Image --
2007 3 3 18 -14.0 116.7 998 25 2 Image --
2007 3 4 00 -14.4 116.3 998 25 2 Image --
2007 3 4 06 -14.3 116.1 998 25 2 Image --
2007 3 4 12 -14.5 116.1 998 25 2 Image --
2007 3 4 18 -14.6 115.5 994 35 3 Image --
2007 3 5 00 -14.5 114.8 994 35 3 Image --
2007 3 5 06 -14.4 114.2 994 35 3 Image --
2007 3 5 12 -14.2 113.4 995 35 3 Image --
2007 3 5 18 -14.1 112.3 993 35 3 Image --
2007 3 6 00 -14.1 111.0 993 35 3 Image --
2007 3 6 06 -13.5 110.1 993 35 3 Image --
2007 3 6 12 -13.3 109.6 992 35 3 Image --
2007 3 6 18 -13.0 108.9 990 35 3 Image --
2007 3 7 00 -12.5 108.3 988 40 3 Image --
2007 3 7 06 -12.5 107.8 984 45 3 Image --
2007 3 7 12 -12.6 107.1 981 50 4 Image --
2007 3 7 18 -12.8 106.3 978 55 4 Image --
2007 3 8 00 -12.4 106.0 977 55 4 Image --
2007 3 8 06 -12.5 105.9 982 50 4 Image --
2007 3 8 12 -12.9 106.3 983 50 4 Image --
2007 3 8 18 -13.4 107.0 984 50 4 Image --
2007 3 9 00 -13.9 107.7 986 50 4 Image --
2007 3 9 06 -14.4 108.3 982 55 4 Image --
2007 3 9 12 -14.9 109.2 976 65 5 Image --
2007 3 9 18 -15.5 109.8 971 70 5 Image --
2007 3 10 00 -15.9 110.6 975 65 5 Image --
2007 3 10 06 -17.0 111.4 978 60 4 Image --
2007 3 10 12 -17.8 112.4 981 55 4 Image --
2007 3 10 18 -18.3 113.1 982 50 4 Image --
2007 3 11 00 -18.9 113.9 984 50 4 Image --
2007 3 11 06 -19.2 114.5 989 40 3 Image --
2007 3 11 12 -19.4 115.6 993 35 3 Image --
2007 3 11 18 -19.6 117.0 995 35 3 Image --
2007 3 12 00 -19.9 118.3 995 35 3 Image --
2007 3 12 03 -20.0 118.9 996 35 3 Image --
2007 3 12 06 -20.3 119.7 998 30 2 Image --
< Cyclone 200711 2007 Season Cyclone 200713 >

Help